Latest Coastal Weather Observations for Yamba

IDN60701

Issued at 11:11 am EDT Saturday 21 January 2017 (issued every 10 minutes, with the page automatically refreshed every 10 minutes)

About coastal observations | Map of coastal stations | Coastal observations for NSW | Marine services | Other Formats
Station Details ID: 058012 Name: YAMBA PILOT STATION Lat: -29.43 Lon: 153.36 Height: 27.4 m
Data from the previous 72 hours. | See also: Recent months at Yamba
Date/Time
EDT
Temp
°C
Wind Pressure Rain since
9am
mm
Weather Cloud Vis
km
Sea
Height
m
Swell
Dir  Spd
kts
Gust
kts
hPa Trend Height
m
Period
s
Dir
21/11:00am 24.1 SSE 13 22 1008.5 - 0.8 - - - - - - -
21/10:30am 23.7 SSE 13 22 1008.1 - 0.6 - - - - - - -
21/10:00am 23.3 SSE 14 23 1007.9 - 0.4 - - - - - - -
21/09:30am 23.8 SSE 15 22 1007.6 - 0.2 - - - - - - -
21/09:00am 23.5 SSE 15 21 1007.0 - 21.8 Recent precip. - - - - - -
21/08:30am 22.8 SSE 14 21 1006.7 - 21.6 - - - - - - -
21/08:00am 22.7 SSE 16 24 1006.5 - 21.4 - - - - - - -
21/07:30am 22.8 SSE 15 21 1006.0 - 21.0 - - - - - - -
21/07:00am 22.9 SSE 14 21 1005.3 - 20.8 - - - - - - -
21/06:30am 23.3 SSE 13 28 1005.2 - 20.4 - - - - - - -
21/06:28am 23.4 SSE 12 28 1005.1 - 20.4 - - - - - - -
21/06:27am 23.6 SSE 11 28 1005.0 - 20.4 - - - - - - -
21/06:00am 24.3 NNW 5 7 1003.1 - 20.2 Rain - - - - - -
21/05:30am 24.5 WNW 8 13 1002.5 - 19.8 - - - - - - -
21/05:00am 24.1 WNW 6 9 1001.8 - 19.6 - - - - - - -
21/04:30am 23.6 NW 4 5 1001.5 - 19.6 - - - - - - -
21/04:00am 23.9 NW 4 5 1001.4 - 19.6 - - - - - - -
21/03:30am 23.4 NNW 5 7 1000.9 - 19.6 - - - - - - -
21/03:00am 23.9 NNW 4 6 1001.4 - 19.6 - - - - - - -
21/02:30am 23.8 N 4 5 1001.5 - 19.6 - - - - - - -
21/02:00am 23.9 NNW 3 4 1001.5 - 19.6 - - - - - - -
21/01:30am 23.8 NW 4 6 1001.6 - 19.6 - - - - - - -
21/01:00am 23.2 NNW 4 7 1000.9 - 19.6 - - - - - - -
21/12:30am 23.1 N 5 7 1000.6 - 19.6 - - - - - - -
21/12:00am 22.9 N 4 8 1001.4 - 19.4 - - - - - - -
 
Date/Time
EDT
Temp
°C
Wind Pressure Rain since
9am
mm
Weather Cloud Vis
km
Sea
Height
m
Swell
Dir  Spd
kts
Gust
kts
hPa Trend Height
m
Period
s
Dir
20/11:30pm 23.0 N 7 11 1001.7 - 19.4 - - - - - - -
20/11:00pm 23.4 NNW 5 7 1002.6 - 19.4 - - - - - - -
20/10:30pm 23.3 NNW 6 8 1002.9 - 19.0 - - - - - - -
20/10:00pm 22.9 N 6 12 1002.5 - 18.2 - - - - - - -
20/09:30pm 22.9 N 6 8 1002.3 - 17.2 - - - - - - -
20/09:00pm 23.2 N 5 9 1002.5 - 16.2 Rain - - - - - -
20/08:30pm 23.7 N 3 6 1002.6 - 14.6 - - - - - - -
20/08:00pm 23.9 W 7 9 1003.1 - 12.4 - - - - - - -
20/07:30pm 24.1 W 10 15 1003.2 - 9.6 - - - - - - -
20/07:00pm 23.7 SW 9 16 1002.6 - 5.0 - - - - - - -
20/06:32pm 25.3 NW 11 28 1004.4 - 0.0 - - - - - - -
20/06:30pm 25.3 NNW 9 28 1004.5 - 0.0 - - - - - - -
20/06:29pm 25.3 NNW 8 20 1003.9 - 0.0 - - - - - - -
20/06:00pm 25.5 N 7 15 1000.3 - 0.0 - - - - - - -
20/05:30pm 26.0 N 8 14 1000.4 - 0.0 - - - - - - -
20/05:00pm 27.2 N 8 16 1000.1 - 0.0 - - - - - - -
20/04:30pm 27.8 N 8 14 1000.3 - 0.0 - - - - - - -
20/04:00pm 28.2 N 9 17 1000.8 - 0.0 - - - - - - -
20/03:30pm 28.7 N 9 14 1001.2 - 0.0 - - - - - - -
20/03:00pm 28.8 N 9 19 1001.9 - 0.0 - - - - - - -
20/02:30pm 28.8 N 9 14 1002.7 - 0.0 - - - - - - -
20/02:00pm 29.0 N 10 16 1003.3 - 0.0 - - - - - - -
20/01:30pm 28.5 N 10 17 1004.3 - 0.0 - - - - - - -
20/01:00pm 28.6 N 9 16 1005.0 - 0.0 - - - - - - -
20/12:30pm 27.9 N 9 16 1005.5 - 0.0 - - - - - - -
20/12:00pm 26.8 N 7 15 1006.5 - 0.0 - - - - - - -
20/11:30am 26.7 N 7 13 1007.0 - 0.0 - - - - - - -
20/11:00am 27.7 N 6 9 1007.4 - 0.0 - - - - - - -
20/10:30am 26.3 N 5 8 1008.2 - 0.0 - - - - - - -
20/10:00am 25.4 N 5 7 1008.7 - 0.0 - - - - - - -
20/09:30am 27.0 N 6 9 1008.6 - 0.0 - - - - - - -
20/09:00am 27.1 N 5 11 1008.6 - 0.0 - - - - - - -
20/08:30am 25.9 NNW 5 11 1009.1 - 0.0 - - - - - - -
20/08:00am 24.2 NW 5 6 1008.9 - 0.0 - - - - - - -
20/07:30am 23.4 NW 4 6 1009.0 - 0.0 - - - - - - -
20/07:00am 22.8 WNW 4 5 1008.8 - 0.0 - - - - - - -
20/06:30am 22.4 WSW 4 5 1008.9 - 0.0 - - - - - - -
20/06:00am 22.3 WSW 4 6 1008.7 - 0.0 - - - - - - -
20/05:30am 22.2 SW 4 6 1008.3 - 0.0 - - - - - - -
20/05:00am 22.3 WSW 4 6 1008.4 - 0.0 - - - - - - -
20/04:30am 22.5 NNE 5 5 1008.4 - 0.0 - - - - - - -
20/04:00am 22.6 NNE 3 4 1008.5 - 0.0 - - - - - - -
20/03:30am 22.6 CALM 0 0 1008.9 - 0.0 - - - - - - -
20/03:00am 22.3 CALM 0 0 1009.2 - 0.0 - - - - - - -
20/02:30am 22.8 CALM 0 0 1009.6 - 0.0 - - - - - - -
20/02:00am 23.2 NNE 3 4 1010.2 - 0.0 - - - - - - -
20/01:30am 23.0 NNE 3 4 1010.6 - 0.0 - - - - - - -
20/01:00am 23.1 NE 3 3 1010.8 - 0.0 - - - - - - -
20/12:30am 23.4 NE 2 4 1011.2 - 0.0 - - - - - - -
20/12:00am 23.6 ENE 5 7 1011.4 - 0.0 - - - - - - -
 
Date/Time
EDT
Temp
°C
Wind Pressure Rain since
9am
mm
Weather Cloud Vis
km
Sea
Height
m
Swell
Dir  Spd
kts
Gust
kts
hPa Trend Height
m
Period
s
Dir
19/11:30pm 23.6 ENE 5 8 1011.5 - 0.0 - - - - - - -
19/11:00pm 23.5 E 5 7 1011.7 - 0.0 - - - - - - -
19/10:30pm 23.5 E 5 7 1011.9 - 0.0 - - - - - - -
19/10:00pm 23.3 E 5 8 1011.8 - 0.0 - - - - - - -
19/09:30pm 23.2 E 5 8 1011.5 - 0.0 - - - - - - -
19/09:00pm 22.8 ESE 7 9 1011.4 - 0.0 - - - - - - -
19/08:30pm 22.9 ESE 6 7 1011.6 - 0.0 - - - - - - -
19/08:00pm 23.3 ESE 5 7 1011.5 - 0.0 - - - - - - -
19/07:30pm 23.5 S 6 8 1010.9 - 0.0 - - - - - - -
19/07:00pm 23.2 SSE 7 9 1010.5 - 0.0 - - - - - - -
19/06:30pm 22.8 SSE 9 13 1010.4 - 0.0 - - - - - - -
19/06:00pm 23.8 SSE 7 10 1010.3 - 0.0 - - - - - - -
19/05:30pm 23.9 SSE 8 11 1010.5 - 0.0 - - - - - - -
19/05:00pm 23.8 SSE 9 13 1010.8 - 0.0 - - - - - - -
19/04:30pm 24.5 SSE 7 11 1010.9 - 0.0 - - - - - - -
19/04:00pm 24.0 SSE 9 13 1011.2 - 0.0 - - - - - - -
19/03:30pm 24.4 SSE 10 13 1011.5 - 0.0 - - - - - - -
19/03:00pm 24.5 SSE 11 15 1011.9 - 0.0 - - - - - - -
19/02:30pm 24.4 SSE 13 21 1012.0 - 0.0 - - - - - - -
19/02:00pm 25.3 SSE 9 13 1012.1 - 0.0 - - - - - - -
19/01:30pm 25.0 SSE 11 17 1012.3 - 0.0 - - - - - - -
19/01:00pm 25.3 SSE 9 13 1012.5 - 0.0 - - - - - - -
19/12:30pm 25.1 SSE 11 15 1012.7 - 0.0 - - - - - - -
19/12:00pm 24.6 S 8 14 1012.8 - 0.0 - - - - - - -
19/11:30am 24.8 SSE 8 12 1012.8 - 0.0 - - - - - - -
19/11:00am 24.4 SSE 10 15 1012.7 - 0.0 - - - - - - -
19/10:30am 23.7 SSE 10 16 1012.9 - 0.0 - - - - - - -
19/10:00am 23.2 SSE 9 12 1012.9 - 0.0 - - - - - - -
19/09:30am 22.6 SSE 10 14 1012.7 - 0.0 - - - - - - -
19/09:00am 22.9 SSE 10 13 1012.7 - 0.2 Recent precip. - - - - - -
19/08:30am 22.7 S 8 14 1012.7 - 0.0 - - - - - - -
19/08:00am 23.2 S 6 9 1012.4 - 0.0 - - - - - - -
19/07:30am 23.6 S 7 10 1012.2 - 0.0 - - - - - - -
19/07:00am 23.6 SE 10 15 1011.6 - 0.0 - - - - - - -
19/06:30am 23.6 SE 10 16 1011.3 - 0.0 - - - - - - -
19/06:00am 23.6 SSE 10 15 1010.8 - 0.0 - - - - - - -
19/05:30am 23.7 SSE 9 13 1010.2 - 0.0 - - - - - - -
19/05:00am 23.9 S 9 13 1009.7 - 0.0 - - - - - - -
19/04:30am 24.1 SSE 10 16 1009.4 - 0.0 - - - - - - -
19/04:00am 24.0 SSE 11 19 1009.0 - 0.0 - - - - - - -
19/03:30am 24.0 S 9 16 1008.9 - 0.0 - - - - - - -
19/03:00am 22.8 S 12 18 1008.6 - 0.0 - - - - - - -
19/02:35am 22.8 SSE 17 27 1008.4 - 0.0 - - - - - - -
19/02:30am 22.8 SSE 18 27 1008.2 - 0.0 - - - - - - -
19/02:05am 23.2 SSE 19 29 1008.0 - 0.0 - - - - - - -
19/02:00am 23.3 SSE 20 29 1008.0 - 0.0 - - - - - - -
19/01:30am 24.1 SSE 20 30 1008.1 - 0.0 - - - - - - -
19/01:06am 24.1 SSE 19 29 1008.2 - 0.0 - - - - - - -
19/01:00am 24.1 SSE 19 27 1008.3 - 0.0 - - - - - - -
19/12:31am 24.4 SSE 21 31 1008.4 - 0.0 - - - - - - -
19/12:30am 24.3 SSE 21 30 1008.5 - 0.0 - - - - - - -
19/12:00am 24.4 SSE 21 33 1008.4 - 0.0 - - - - - - -
 
Date/Time
EDT
Temp
°C
Wind Pressure Rain since
9am
mm
Weather Cloud Vis
km
Sea
Height
m
Swell
Dir  Spd
kts
Gust
kts
hPa Trend Height
m
Period
s
Dir
18/11:33pm 25.0 SSE 19 33 1008.4 - 0.0 - - - - - - -
18/11:30pm 25.1 SSE 20 32 1008.4 - 0.0 - - - - - - -
18/11:15pm 27.1 WNW 6 28 1008.5 - 0.0 - - - - - - -
18/11:00pm 27.4 NW 3 5 1006.7 - 0.0 - - - - - - -
18/10:30pm 26.6 NW 4 5 1006.6 - 0.0 - - - - - - -
18/10:00pm 25.3 NNW 4 5 1006.5 - 0.0 - - - - - - -
18/09:30pm 25.1 N 5 6 1006.2 - 0.0 - - - - - - -
18/09:00pm 25.4 N 5 7 1006.0 - 0.0 - - - - - - -
18/08:30pm 25.3 N 5 7 1005.9 - 0.0 - - - - - - -
18/08:00pm 25.3 ENE 7 11 1005.7 - 0.0 - - - - - - -
18/07:30pm 25.6 N 6 10 1005.1 - 0.0 - - - - - - -
18/07:00pm 25.8 N 7 11 1005.0 - 0.0 - - - - - - -
18/06:30pm 26.5 N 7 10 1004.7 - 0.0 - - - - - - -
18/06:00pm 27.4 N 6 11 1004.7 - 0.0 - - - - - - -
18/05:30pm 27.9 N 6 11 1004.8 - 0.0 - - - - - - -
18/05:00pm 28.6 N 7 10 1005.0 - 0.0 - - - - - - -
18/04:30pm 28.8 N 6 11 1005.4 - 0.0 - - - - - - -
18/04:00pm 29.3 N 6 10 1005.8 - 0.0 - - - - - - -
18/03:30pm 29.5 N 6 9 1006.2 - 0.0 - - - - - - -
18/03:00pm 29.0 N 6 10 1006.7 - 0.0 - - - - - - -
18/02:30pm 29.2 N 6 10 1007.2 - 0.0 - - - - - - -
18/02:00pm 29.1 N 6 11 1007.6 - 0.0 - - - - - - -
18/01:30pm 28.6 N 5 10 1008.0 - 0.0 - - - - - - -
18/01:00pm 28.0 NE 5 7 1008.5 - 0.0 - - - - - - -
18/12:30pm 26.9 NE 5 7 1008.9 - 0.0 - - - - - - -
18/12:00pm 26.9 E 5 7 1009.4 - 0.0 - - - - - - -
18/11:30am 27.9 N 5 8 1009.7 - 0.0 - - - - - - -

Other Formats:

Comma delimited format used in spreadsheet applications
http://www.bom.gov.au/fwo/IDN60701/IDN60701.94589.axf

JavaScript Object Notation format (JSON) in row-major order
http://www.bom.gov.au/fwo/IDN60701/IDN60701.94589.json